createdAt,value
2017-08-26T00:02:07.984Z,60.60
2017-08-26T00:04:38.463Z,60.10
2017-08-26T00:07:09.860Z,60.70
2017-08-26T00:09:41.738Z,60.70
2017-08-26T00:12:12.336Z,60.50
2017-08-26T00:14:42.988Z,60.60
2017-08-26T00:17:13.675Z,60.80
2017-08-26T00:19:44.953Z,60.80
2017-08-26T00:22:15.458Z,60.80
2017-08-26T00:24:46.217Z,60.90
2017-08-26T00:27:16.693Z,60.80
2017-08-26T00:29:47.342Z,60.90
2017-08-26T00:32:17.944Z,61.00
2017-08-26T00:34:48.680Z,60.80
2017-08-26T00:37:19.535Z,61.20
2017-08-26T00:39:53.124Z,61.00
2017-08-26T00:42:23.784Z,60.90
2017-08-26T00:44:54.399Z,61.00
2017-08-26T00:47:25.707Z,61.20
2017-08-26T00:49:56.157Z,61.10
2017-08-26T00:52:26.781Z,61.10
2017-08-26T00:54:57.227Z,61.10
2017-08-26T00:57:27.850Z,61.10
2017-08-26T00:59:58.296Z,61.20
2017-08-26T01:02:29.269Z,61.00
2017-08-26T01:05:00.152Z,61.20
2017-08-26T01:07:35.246Z,61.20
2017-08-26T01:10:05.855Z,61.30
2017-08-26T01:12:36.277Z,62.00
2017-08-26T01:15:06.900Z,61.30
2017-08-26T01:17:38.211Z,61.40
2017-08-26T01:20:08.703Z,61.30
2017-08-26T01:22:39.184Z,61.40
2017-08-26T01:25:09.748Z,61.40
2017-08-26T01:27:40.277Z,61.40
2017-08-26T01:30:10.902Z,61.50
2017-08-26T01:32:42.376Z,61.50
2017-08-26T01:35:13.756Z,61.60
2017-08-26T01:37:44.650Z,61.50
2017-08-26T01:40:15.213Z,61.50
2017-08-26T01:42:45.702Z,61.40
2017-08-26T01:45:17.059Z,61.60
2017-08-26T01:47:47.759Z,61.60
2017-08-26T01:50:18.644Z,61.50
2017-08-26T01:52:49.207Z,61.60
2017-08-26T01:55:19.764Z,61.70
2017-08-26T01:57:50.284Z,61.60
2017-08-26T02:00:20.998Z,61.60
2017-08-26T02:02:51.664Z,61.60
2017-08-26T02:05:22.383Z,61.60
2017-08-26T02:07:53.630Z,61.80
2017-08-26T02:10:24.277Z,61.70
2017-08-26T02:12:54.929Z,61.70
2017-08-26T02:15:25.462Z,61.60
2017-08-26T02:17:55.960Z,61.50
2017-08-26T02:20:26.421Z,61.50
2017-08-26T02:22:57.845Z,61.60
2017-08-26T02:25:28.488Z,61.60
2017-08-26T02:27:59.095Z,61.60
2017-08-26T02:30:29.638Z,61.50
2017-08-26T02:33:00.462Z,61.60
2017-08-26T02:35:31.173Z,61.60
2017-08-26T02:38:02.256Z,61.60
2017-08-26T02:40:32.743Z,61.70
2017-08-26T02:43:03.730Z,61.70
2017-08-26T02:45:34.276Z,61.70
2017-08-26T02:48:04.765Z,61.70
2017-08-26T02:50:35.249Z,61.70
2017-08-26T02:53:06.017Z,61.70
2017-08-26T02:55:36.839Z,61.70
2017-08-26T02:58:07.257Z,61.70
2017-08-26T03:00:38.031Z,61.80
2017-08-26T03:03:08.732Z,61.70
2017-08-26T03:05:39.266Z,61.60
2017-08-26T03:08:09.828Z,61.90
2017-08-26T03:10:40.355Z,61.90
2017-08-26T03:13:10.866Z,61.80
2017-08-26T03:15:41.397Z,61.90
2017-08-26T03:18:11.871Z,61.80
2017-08-26T03:20:42.530Z,61.80
2017-08-26T03:23:13.939Z,61.90
2017-08-26T03:25:45.826Z,61.80
2017-08-26T03:28:16.272Z,61.80
2017-08-26T03:30:46.831Z,61.90
2017-08-26T03:33:17.428Z,62.00
2017-08-26T03:35:47.875Z,61.80
2017-08-26T03:38:19.376Z,62.00
2017-08-26T03:40:49.993Z,61.90
2017-08-26T03:43:21.300Z,61.90
2017-08-26T03:45:52.740Z,62.50
2017-08-26T03:48:23.294Z,62.10
2017-08-26T03:50:53.752Z,62.10
2017-08-26T03:53:24.553Z,62.00
2017-08-26T03:55:56.154Z,62.20
2017-08-26T03:58:26.741Z,62.20
2017-08-26T04:00:57.373Z,62.30
2017-08-26T04:03:29.002Z,62.50
2017-08-26T04:05:59.657Z,62.50
2017-08-26T04:08:30.808Z,62.50
2017-08-26T04:11:01.984Z,62.50
2017-08-26T04:13:32.671Z,62.40
2017-08-26T04:16:03.314Z,62.40
2017-08-26T04:18:33.898Z,62.20
2017-08-26T04:21:04.359Z,62.20
2017-08-26T04:23:35.155Z,62.30
2017-08-26T04:26:05.989Z,62.60
2017-08-26T04:28:37.426Z,62.60
2017-08-26T04:31:07.993Z,62.40
2017-08-26T04:33:38.441Z,62.30
2017-08-26T04:36:09.086Z,62.30
2017-08-26T04:38:39.552Z,62.60
2017-08-26T04:41:10.142Z,62.60
2017-08-26T04:43:41.812Z,62.60
2017-08-26T04:46:12.344Z,62.60
2017-08-26T04:48:43.148Z,62.60
2017-08-26T04:51:14.366Z,62.70
2017-08-26T04:53:45.084Z,62.70
2017-08-26T04:56:16.125Z,62.90
2017-08-26T04:58:46.620Z,62.80
2017-08-26T05:01:17.444Z,63.00
2017-08-26T05:03:48.301Z,62.90
2017-08-26T05:06:18.802Z,63.60
2017-08-26T05:08:49.342Z,63.00
2017-08-26T05:11:19.866Z,63.20
2017-08-26T05:13:50.374Z,63.00
2017-08-26T05:16:20.880Z,63.00
2017-08-26T05:18:51.447Z,63.20
2017-08-26T05:21:21.936Z,63.20
2017-08-26T05:23:52.482Z,63.40
2017-08-26T05:26:23.795Z,63.10
2017-08-26T05:28:54.364Z,63.40
2017-08-26T05:31:24.919Z,63.60
2017-08-26T05:33:55.455Z,63.40
2017-08-26T05:36:26.195Z,63.60
2017-08-26T05:38:57.489Z,63.50
2017-08-26T05:41:28.045Z,63.50
2017-08-26T05:43:59.159Z,63.50
2017-08-26T05:46:30.341Z,63.90
2017-08-26T05:49:01.676Z,63.90
2017-08-26T05:51:32.869Z,63.90
2017-08-26T05:54:03.484Z,64.00
2017-08-26T05:56:34.273Z,64.50
2017-08-26T05:59:05.117Z,64.40
2017-08-26T06:01:36.286Z,64.50
2017-08-26T06:04:07.137Z,64.60
2017-08-26T06:06:39.733Z,64.50
2017-08-26T06:09:10.533Z,64.50
2017-08-26T06:11:41.565Z,64.50
2017-08-26T06:14:12.944Z,64.70
2017-08-26T06:16:43.473Z,64.70
2017-08-26T06:19:14.157Z,64.90
2017-08-26T06:21:45.814Z,64.90
2017-08-26T06:24:17.156Z,65.10
2017-08-26T06:26:48.424Z,65.40
2017-08-26T06:29:19.708Z,65.50
2017-08-26T06:31:51.155Z,65.50
2017-08-26T06:34:22.251Z,65.50
2017-08-26T06:36:52.900Z,65.70
2017-08-26T06:39:24.871Z,65.70
2017-08-26T06:41:56.675Z,66.00
2017-08-26T06:44:27.433Z,65.80
2017-08-26T06:46:58.558Z,66.30
2017-08-26T06:49:29.293Z,66.80
2017-08-26T06:52:00.151Z,66.60
2017-08-26T06:54:30.872Z,66.80
2017-08-26T06:57:03.585Z,69.60
2017-08-26T06:59:34.190Z,69.80
2017-08-26T07:02:06.872Z,69.10
2017-08-26T07:04:37.944Z,69.80
2017-08-26T07:07:10.728Z,69.90
2017-08-26T07:09:42.749Z,70.10
2017-08-26T07:12:13.315Z,70.60
2017-08-26T07:14:46.704Z,70.70
2017-08-26T07:17:17.509Z,71.50
2017-08-26T07:19:48.743Z,71.10
2017-08-26T07:22:19.531Z,70.50
2017-08-26T07:24:51.099Z,70.00
2017-08-26T07:27:22.067Z,69.90
2017-08-26T07:29:52.800Z,70.60
2017-08-26T07:32:24.270Z,69.70
2017-08-26T07:34:56.183Z,68.80
2017-08-26T07:37:27.040Z,69.40
2017-08-26T07:39:58.099Z,69.40
2017-08-26T07:42:29.552Z,69.70
2017-08-26T07:45:00.253Z,70.50
2017-08-26T07:47:31.016Z,69.00
2017-08-26T07:50:02.715Z,69.60
2017-08-26T07:52:34.011Z,69.20
2017-08-26T07:55:06.059Z,70.00
2017-08-26T07:57:36.877Z,69.70
2017-08-26T08:00:07.518Z,69.70
2017-08-26T08:02:39.115Z,69.10
2017-08-26T08:05:09.806Z,69.70
2017-08-26T08:07:40.622Z,69.00
2017-08-26T08:10:11.659Z,69.00
2017-08-26T08:12:42.618Z,68.90
2017-08-26T08:15:13.939Z,69.20
2017-08-26T08:17:45.036Z,69.40
2017-08-26T08:20:15.731Z,69.70
2017-08-26T08:22:47.911Z,69.30
2017-08-26T08:25:19.765Z,69.30
2017-08-26T08:27:50.512Z,69.00
2017-08-26T08:30:21.025Z,69.10
2017-08-26T08:32:51.684Z,69.10
2017-08-26T08:35:24.359Z,69.30
2017-08-26T08:37:56.526Z,69.20
2017-08-26T08:40:27.091Z,69.20
2017-08-26T08:42:57.756Z,69.30
2017-08-26T08:45:28.672Z,69.20
2017-08-26T08:47:59.514Z,69.10
2017-08-26T08:50:30.390Z,68.90
2017-08-26T08:53:01.936Z,68.00
2017-08-26T08:55:32.565Z,68.00
2017-08-26T08:58:03.258Z,68.00
2017-08-26T09:00:34.304Z,68.60
2017-08-26T09:03:04.932Z,68.50
2017-08-26T09:05:35.609Z,67.80
2017-08-26T09:08:07.357Z,68.60
2017-08-26T09:10:38.167Z,68.60
2017-08-26T09:13:09.037Z,68.20
2017-08-26T09:15:39.746Z,68.10
2017-08-26T09:18:10.614Z,68.00
2017-08-26T09:20:42.566Z,67.70
2017-08-26T09:23:13.373Z,67.40
2017-08-26T09:25:44.311Z,68.90
2017-08-26T09:28:15.846Z,67.80
2017-08-26T09:30:47.516Z,68.00
2017-08-26T09:33:18.102Z,67.80
2017-08-26T09:35:49.685Z,67.20
2017-08-26T09:38:20.959Z,67.60
2017-08-26T09:40:52.037Z,67.70
2017-08-26T09:43:22.849Z,67.80
2017-08-26T09:45:53.771Z,67.90
2017-08-26T09:48:25.412Z,67.30
2017-08-26T09:50:56.260Z,67.20
2017-08-26T09:53:26.915Z,66.60
2017-08-26T09:55:57.718Z,65.10
2017-08-26T09:58:29.506Z,65.40
2017-08-26T10:01:00.357Z,66.20
2017-08-26T10:03:31.883Z,65.00
2017-08-26T10:06:03.075Z,64.20
2017-08-26T10:08:35.335Z,64.60
2017-08-26T10:11:06.206Z,64.10
2017-08-26T10:13:36.920Z,64.10
2017-08-26T10:16:08.194Z,61.50
2017-08-26T10:18:39.723Z,61.40
2017-08-26T10:21:10.556Z,61.60
2017-08-26T10:23:42.486Z,61.30
2017-08-26T10:26:14.211Z,61.10
2017-08-26T10:28:46.955Z,62.50
2017-08-26T10:31:17.861Z,62.50
2017-08-26T10:33:48.840Z,63.20
2017-08-26T10:36:20.002Z,63.60
2017-08-26T10:38:51.013Z,63.40
2017-08-26T10:41:22.056Z,63.10
2017-08-26T10:43:53.125Z,63.20
2017-08-26T10:46:25.676Z,62.50
2017-08-26T10:48:56.716Z,62.10
2017-08-26T10:51:27.657Z,62.50
2017-08-26T10:53:58.856Z,62.10
2017-08-26T10:56:30.679Z,61.30
2017-08-26T10:59:01.442Z,61.20
2017-08-26T11:01:32.453Z,61.10
2017-08-26T11:04:03.020Z,60.50
2017-08-26T11:06:33.994Z,60.10
2017-08-26T11:09:05.207Z,59.20
2017-08-26T11:11:35.817Z,59.50
2017-08-26T11:14:06.554Z,59.60
2017-08-26T11:16:37.924Z,60.30
2017-08-26T11:19:08.453Z,60.30
2017-08-26T11:21:39.402Z,60.50
2017-08-26T11:24:10.424Z,61.00
2017-08-26T11:26:41.056Z,60.80
2017-08-26T11:29:12.627Z,60.50
2017-08-26T11:31:44.072Z,60.40
2017-08-26T11:34:14.912Z,60.30
2017-08-26T11:36:45.783Z,60.50
2017-08-26T11:39:17.399Z,60.20
2017-08-26T11:41:49.078Z,60.10
2017-08-26T11:44:20.694Z,60.30
2017-08-26T11:46:51.672Z,60.50
2017-08-26T11:49:23.492Z,60.00
2017-08-26T11:51:55.047Z,60.20
2017-08-26T11:54:27.466Z,60.30
2017-08-26T11:56:58.281Z,59.60
2017-08-26T11:59:29.608Z,59.50
2017-08-26T12:02:00.451Z,59.50
2017-08-26T12:04:31.804Z,59.90
2017-08-26T12:07:02.600Z,60.70
2017-08-26T12:09:33.644Z,59.80
2017-08-26T12:12:04.832Z,59.50
2017-08-26T12:14:36.561Z,59.20
2017-08-26T12:17:09.009Z,59.40
2017-08-26T12:19:40.553Z,59.20
2017-08-26T12:22:11.615Z,59.40
2017-08-26T12:24:43.666Z,58.60
2017-08-26T12:27:15.277Z,58.80
2017-08-26T12:29:51.219Z,58.90
2017-08-26T12:32:22.568Z,58.90
2017-08-26T12:34:53.471Z,58.80
2017-08-26T12:37:24.420Z,58.40
2017-08-26T12:39:55.993Z,57.90
2017-08-26T12:42:28.347Z,58.60
2017-08-26T12:44:59.641Z,58.80
2017-08-26T12:47:30.634Z,59.00
2017-08-26T12:50:03.126Z,58.80
2017-08-26T12:52:33.985Z,58.90
2017-08-26T12:55:04.921Z,59.00
2017-08-26T12:57:37.671Z,59.20
2017-08-26T13:00:08.659Z,59.40
2017-08-26T13:02:40.596Z,59.60
2017-08-26T13:05:11.505Z,59.60
2017-08-26T13:07:47.721Z,59.40
2017-08-26T13:10:19.499Z,59.20
2017-08-26T13:12:51.150Z,59.80
2017-08-26T13:15:23.107Z,59.70
2017-08-26T13:17:55.066Z,59.10
2017-08-26T13:20:25.968Z,59.70
2017-08-26T13:22:56.986Z,59.60
2017-08-26T13:25:27.568Z,60.00
2017-08-26T13:27:58.927Z,59.80
2017-08-26T13:30:31.310Z,59.70
2017-08-26T13:33:03.518Z,59.90
2017-08-26T13:35:34.766Z,60.00
2017-08-26T13:38:09.149Z,59.70
2017-08-26T13:40:40.444Z,59.50
2017-08-26T13:43:12.173Z,59.70
2017-08-26T13:45:46.220Z,59.90
2017-08-26T13:48:19.839Z,59.70
2017-08-26T13:50:54.012Z,59.10
2017-08-26T13:53:28.206Z,59.50
2017-08-26T13:56:01.901Z,59.90
2017-08-26T13:58:35.717Z,59.40
2017-08-26T14:01:10.155Z,59.60
2017-08-26T14:24:45.611Z,60.80
2017-08-26T14:27:20.298Z,61.00
2017-08-26T14:29:54.281Z,61.40
2017-08-26T14:32:27.817Z,61.50
2017-08-26T14:35:01.979Z,61.60
2017-08-26T14:37:36.585Z,61.80
2017-08-26T14:40:08.925Z,61.90
2017-08-26T14:42:40.516Z,61.90
2017-08-26T14:45:11.897Z,61.80
2017-08-26T14:47:44.165Z,61.70
2017-08-26T14:50:16.595Z,61.10
2017-08-26T14:52:50.873Z,62.40
2017-08-26T14:55:22.382Z,62.10
2017-08-26T14:57:54.964Z,62.20
2017-08-26T15:00:29.319Z,62.30
2017-08-26T15:03:06.115Z,62.60
2017-08-26T15:05:40.309Z,62.70
2017-08-26T15:08:14.691Z,62.80
2017-08-26T15:10:51.944Z,63.20
2017-08-26T15:13:30.695Z,63.90
2017-08-26T15:16:05.063Z,64.40
2017-08-26T15:18:42.410Z,63.70
2017-08-26T15:21:14.211Z,63.70
2017-08-26T15:23:49.671Z,63.50
2017-08-26T15:26:23.862Z,63.40
2017-08-26T15:28:59.288Z,63.40
2017-08-26T15:31:33.872Z,63.10
2017-08-26T15:34:08.923Z,63.70
2017-08-26T15:36:41.968Z,63.00
2017-08-26T15:39:16.038Z,63.10
2017-08-26T15:41:51.094Z,63.10
2017-08-26T15:44:24.459Z,63.20
2017-08-26T15:46:57.598Z,63.30
2017-08-26T15:49:28.959Z,63.20
2017-08-26T15:52:03.329Z,63.30
2017-08-26T15:54:35.804Z,63.40
2017-08-26T15:57:08.774Z,63.40
2017-08-26T15:59:42.123Z,63.40
2017-08-26T16:02:16.076Z,63.70
2017-08-26T16:04:48.602Z,63.70
2017-08-26T16:07:20.574Z,63.80
2017-08-26T16:09:52.404Z,63.80
2017-08-26T16:12:26.049Z,63.90
2017-08-26T16:14:59.362Z,65.10
2017-08-26T16:17:42.485Z,64.90
2017-08-26T16:20:17.201Z,64.90
2017-08-26T16:22:50.037Z,64.80
2017-08-26T16:25:22.279Z,65.20
2017-08-26T16:27:59.353Z,64.40
2017-08-26T16:30:33.190Z,64.90
2017-08-26T16:33:07.629Z,65.60
2017-08-26T16:50:42.246Z,68.10
2017-08-26T16:53:13.888Z,67.70
2017-08-26T16:55:45.609Z,67.60
2017-08-26T16:58:16.674Z,67.80
2017-08-26T17:00:48.267Z,68.20
2017-08-26T17:03:19.234Z,67.70
2017-08-26T17:05:50.527Z,67.40
2017-08-26T17:08:21.304Z,67.40
2017-08-26T17:10:52.333Z,67.80
2017-08-26T17:13:23.214Z,67.50
2017-08-26T17:15:53.875Z,67.70
2017-08-26T17:18:29.242Z,67.90
2017-08-26T17:21:00.244Z,68.30
2017-08-26T17:23:31.121Z,68.90
2017-08-26T17:26:03.478Z,68.40
2017-08-26T17:28:34.480Z,68.90
2017-08-26T17:31:05.715Z,69.20
2017-08-26T17:33:37.485Z,68.90
2017-08-26T17:36:09.320Z,67.80
2017-08-26T17:38:40.169Z,67.20
2017-08-26T17:41:11.965Z,66.30
2017-08-26T17:43:42.810Z,65.90
2017-08-26T17:46:14.247Z,65.70
2017-08-26T17:48:45.617Z,65.50
2017-08-26T17:51:17.292Z,65.50
2017-08-26T17:53:48.074Z,65.50
2017-08-26T17:56:18.929Z,65.50
2017-08-26T17:58:51.493Z,65.30
2017-08-26T18:01:22.422Z,65.40
2017-08-26T18:03:54.185Z,65.10
2017-08-26T18:06:24.941Z,65.20
2017-08-26T18:08:56.497Z,65.40
2017-08-26T18:11:28.218Z,64.00
2017-08-26T18:13:59.049Z,64.00
2017-08-26T18:16:30.849Z,64.50
2017-08-26T18:19:02.582Z,64.90
2017-08-26T18:21:33.438Z,64.80
2017-08-26T18:24:04.731Z,65.20
2017-08-26T18:26:35.321Z,64.40
2017-08-26T18:29:06.870Z,64.80
2017-08-26T18:31:37.833Z,65.00
2017-08-26T18:34:09.288Z,64.60
2017-08-26T18:36:40.973Z,64.90
2017-08-26T18:39:11.621Z,63.90
2017-08-26T18:41:43.298Z,64.10
2017-08-26T18:44:14.271Z,64.60
2017-08-26T18:46:45.297Z,64.70
2017-08-26T18:49:16.262Z,65.00
2017-08-26T18:51:47.883Z,64.10
2017-08-26T18:54:18.857Z,65.00
2017-08-26T18:56:50.205Z,64.20
2017-08-26T18:59:20.813Z,64.30
2017-08-26T19:01:51.914Z,64.20
2017-08-26T19:04:23.712Z,64.40
2017-08-26T19:06:55.545Z,64.40
2017-08-26T19:09:26.955Z,64.40
2017-08-26T19:11:57.738Z,64.30
2017-08-26T19:14:29.326Z,64.20
2017-08-26T19:17:00.087Z,64.10
2017-08-26T19:19:30.819Z,64.60
2017-08-26T19:22:01.679Z,64.10
2017-08-26T19:24:32.452Z,64.00
2017-08-26T19:27:04.304Z,64.50
2017-08-26T19:29:35.052Z,64.60
2017-08-26T19:32:06.263Z,64.20
2017-08-26T19:34:37.529Z,64.40
2017-08-26T19:37:08.249Z,64.70
2017-08-26T19:39:39.067Z,64.60
2017-08-26T19:42:10.242Z,64.70
2017-08-26T19:44:41.180Z,65.20
2017-08-26T19:47:12.044Z,64.90
2017-08-26T19:49:42.675Z,64.90
2017-08-26T19:52:13.606Z,64.70
2017-08-26T19:54:44.906Z,64.80
2017-08-26T19:57:16.790Z,65.00
2017-08-26T19:59:47.390Z,64.90
2017-08-26T20:02:19.023Z,65.50
2017-08-26T20:04:49.641Z,65.50
2017-08-26T20:07:20.322Z,65.30
2017-08-26T20:09:50.918Z,65.50
2017-08-26T20:12:21.602Z,65.70
2017-08-26T20:14:52.248Z,65.90
2017-08-26T20:17:22.964Z,66.10
2017-08-26T20:19:53.869Z,66.10
2017-08-26T20:22:24.596Z,66.10
2017-08-26T20:24:55.077Z,66.20
2017-08-26T20:27:25.672Z,65.90
2017-08-26T20:29:57.126Z,65.80
2017-08-26T20:32:27.742Z,65.90
2017-08-26T20:34:58.142Z,65.90
2017-08-26T20:37:28.821Z,66.30
2017-08-26T20:40:00.205Z,66.30
2017-08-26T20:42:31.013Z,66.30
2017-08-26T20:45:01.623Z,66.70
2017-08-26T20:47:32.158Z,66.70
2017-08-26T20:50:03.270Z,66.40
2017-08-26T20:52:34.060Z,66.50
2017-08-26T20:55:04.457Z,66.70
2017-08-26T20:57:35.141Z,66.60
2017-08-26T21:00:05.899Z,66.50
2017-08-26T21:02:36.621Z,66.90
2017-08-26T21:05:07.309Z,66.80
2017-08-26T21:07:38.004Z,66.80
2017-08-26T21:10:10.318Z,66.70
2017-08-26T21:12:41.174Z,66.70
2017-08-26T21:15:11.836Z,67.10
2017-08-26T21:18:13.209Z,66.90
2017-08-26T21:20:43.925Z,68.00
2017-08-26T21:23:14.593Z,67.00
2017-08-26T21:25:45.266Z,67.00
2017-08-26T21:28:15.711Z,67.20
2017-08-26T21:30:49.974Z,67.00
2017-08-26T21:33:20.531Z,67.00
2017-08-26T21:35:50.991Z,67.00
2017-08-26T21:38:21.633Z,67.00
2017-08-26T21:40:52.040Z,67.10
2017-08-26T21:43:23.234Z,67.10
2017-08-26T21:45:54.099Z,67.10
2017-08-26T21:48:24.831Z,67.00
2017-08-26T21:50:55.480Z,67.00
2017-08-26T21:53:27.100Z,66.70
2017-08-26T21:55:57.771Z,66.50
2017-08-26T21:58:28.563Z,66.70
2017-08-26T22:00:59.745Z,66.50
2017-08-26T22:03:30.474Z,66.80
2017-08-26T22:06:01.061Z,66.10
2017-08-26T22:08:32.057Z,65.90
2017-08-26T22:11:02.548Z,66.40
2017-08-26T22:13:33.254Z,65.80
2017-08-26T22:16:04.019Z,66.20
2017-08-26T22:18:34.809Z,66.70
2017-08-26T22:21:05.464Z,66.60
2017-08-26T22:23:36.182Z,66.20
2017-08-26T22:26:06.802Z,66.50
2017-08-26T22:28:37.483Z,66.00
2017-08-26T22:31:07.956Z,66.10
2017-08-26T22:33:39.643Z,65.90
2017-08-26T22:36:10.132Z,65.70
2017-08-26T22:38:40.625Z,65.90
2017-08-26T22:41:11.210Z,66.00
2017-08-26T22:43:42.135Z,66.10
2017-08-26T22:46:12.652Z,66.00
2017-08-26T22:48:43.378Z,65.60
2017-08-26T22:51:14.394Z,65.90
2017-08-26T22:53:46.027Z,66.00
2017-08-26T22:56:16.546Z,65.80
2017-08-26T22:58:47.076Z,66.70
2017-08-26T23:01:17.618Z,65.60
2017-08-26T23:03:48.112Z,65.70
2017-08-26T23:06:19.156Z,65.80
2017-08-26T23:08:49.827Z,65.90
2017-08-26T23:11:20.296Z,65.40
2017-08-26T23:13:51.104Z,65.70
2017-08-26T23:16:21.807Z,66.00
2017-08-26T23:18:52.673Z,65.40
2017-08-26T23:21:23.276Z,65.20
2017-08-26T23:23:53.831Z,65.30
2017-08-26T23:26:24.470Z,65.30
2017-08-26T23:28:55.033Z,65.20
2017-08-26T23:31:25.888Z,65.10
2017-08-26T23:33:56.572Z,65.20
2017-08-26T23:36:27.137Z,65.20
2017-08-26T23:38:57.877Z,65.10
2017-08-26T23:41:28.719Z,65.00
2017-08-26T23:43:59.289Z,65.00
2017-08-26T23:46:29.971Z,64.60
2017-08-26T23:49:00.538Z,64.40
2017-08-26T23:51:31.113Z,64.90
2017-08-26T23:54:01.522Z,64.50
2017-08-26T23:56:33.149Z,64.80
2017-08-26T23:59:03.675Z,64.30
